Time;durP1;ratioP1;P1;durP2;ratioP2;P2;SDS_P1;SDS_P2;PMS_P1;PMS_P2;Temp;Humidity;BMP_temperature;BMP_pressure;BME280_temperature;BME280_humidity;BME280_pressure;Samples;Min_cycle;Max_cycle;Signal;HPM_P1;HPM_P2
2022/02/12 00:01:42;;;;;;;1.30;0.87;;;22.10;53.20;;;;;;6235381;23;20370;-81
2022/02/12 00:04:11;;;;;;;1.77;1.17;;;22.10;53.20;;;;;;6233411;23;20421;-82
2022/02/12 00:06:49;;;;;;;1.50;1.00;;;22.10;53.20;;;;;;6211586;23;20388;-81
2022/02/12 00:09:19;;;;;;;2.10;1.27;;;22.10;53.20;;;;;;6229929;23;20457;-81
2022/02/12 00:11:46;;;;;;;1.40;1.03;;;22.10;53.10;;;;;;6205436;23;20448;-81
2022/02/12 00:14:16;;;;;;;1.13;0.73;;;22.10;53.10;;;;;;6231873;23;20375;-81
2022/02/12 00:16:42;;;;;;;2.70;1.27;;;22.10;53.10;;;;;;6207513;23;20448;-82
2022/02/12 00:19:16;;;;;;;1.57;1.13;;;22.10;53.10;;;;;;6234447;23;20374;-82
2022/02/12 00:25:09;;;;;;;1.07;0.80;;;22.10;53.10;;;;;;6227718;23;20422;-82
2022/02/12 00:31:20;;;;;;;1.30;0.80;;;22.10;53.10;;;;;;6226664;23;20385;-82
2022/02/12 00:34:22;;;;;;;2.40;1.37;;;22.10;53.20;;;;;;6232387;23;20390;-82
2022/02/12 00:36:56;;;;;;;2.33;1.17;;;22.00;53.10;;;;;;6219707;23;20406;-82
2022/02/12 00:39:22;;;;;;;1.50;1.07;;;22.00;53.10;;;;;;6232740;23;20464;-82
2022/02/12 00:41:52;;;;;;;1.60;1.13;;;22.00;53.10;;;;;;6234250;23;20407;-82
2022/02/12 00:44:27;;;;;;;1.57;0.93;;;22.00;53.10;;;;;;6232017;23;20422;-82
2022/02/12 00:46:55;;;;;;;1.53;0.93;;;22.00;53.10;;;;;;6232244;23;20378;-83
2022/02/12 00:49:23;;;;;;;1.30;1.00;;;22.00;53.10;;;;;;6233176;23;20382;-82
2022/02/12 00:51:55;;;;;;;1.30;1.10;;;22.00;53.10;;;;;;6233508;23;20401;-82
2022/02/12 00:54:25;;;;;;;1.67;0.90;;;22.00;53.00;;;;;;6234041;23;20409;-82
2022/02/12 00:56:55;;;;;;;1.30;1.10;;;22.10;53.10;;;;;;6232764;23;20383;-82
2022/02/12 00:59:31;;;;;;;2.10;1.10;;;22.00;53.10;;;;;;6234618;23;20362;-82
2022/02/12 01:02:10;;;;;;;1.30;1.13;;;22.00;53.10;;;;;;6202422;23;20383;-82
2022/02/12 01:04:37;;;;;;;1.57;0.80;;;22.00;53.10;;;;;;6200912;23;20446;-83
2022/02/12 01:07:05;;;;;;;1.83;1.00;;;22.00;53.00;;;;;;6199687;23;20402;-83
2022/02/12 01:09:34;;;;;;;3.63;1.10;;;22.00;53.00;;;;;;6196361;23;20383;-83
2022/02/12 01:12:22;;;;;;;1.23;1.00;;;22.00;53.00;;;;;;6199202;23;20387;-83
2022/02/12 01:14:48;;;;;;;1.00;0.90;;;22.10;53.10;;;;;;6206662;23;20379;-81
2022/02/12 01:17:56;;;;;;;1.77;1.07;;;22.00;53.00;;;;;;6205675;23;20442;-83
2022/02/12 01:21:05;;;;;;;1.53;1.00;;;22.00;53.00;;;;;;6206708;23;20156;-83
2022/02/12 01:23:35;;;;;;;1.50;1.40;;;22.00;53.00;;;;;;6206491;23;20383;-82
2022/02/12 01:26:09;;;;;;;1.70;0.90;;;22.00;53.00;;;;;;6206824;23;20845;-82
2022/02/12 01:28:35;;;;;;;1.73;0.97;;;22.00;53.00;;;;;;6207986;23;20392;-82
2022/02/12 01:31:02;;;;;;;1.20;0.90;;;22.00;53.00;;;;;;6180999;23;20379;-82
2022/02/12 01:33:41;;;;;;;1.47;1.00;;;22.00;53.00;;;;;;6208411;23;20376;-82
2022/02/12 01:36:12;;;;;;;1.17;0.90;;;22.00;53.00;;;;;;6207595;23;20363;-82
2022/02/12 01:38:41;;;;;;;1.80;1.00;;;22.00;53.00;;;;;;6206667;23;20405;-83
2022/02/12 01:41:31;;;;;;;1.60;1.10;;;22.00;53.00;;;;;;6180694;23;20386;-82
2022/02/12 01:44:28;;;;;;;1.30;1.10;;;22.00;53.00;;;;;;6230003;23;20457;-82
2022/02/12 01:47:17;;;;;;;1.27;1.00;;;22.00;53.00;;;;;;6205618;23;20403;-82
2022/02/12 01:49:46;;;;;;;1.50;1.00;;;22.00;53.00;;;;;;6203058;23;20379;-83
2022/02/12 01:52:16;;;;;;;1.23;0.90;;;22.00;53.00;;;;;;6197658;23;20374;-83
2022/02/12 01:54:45;;;;;;;1.53;0.93;;;22.00;53.00;;;;;;6198781;23;20925;-83
2022/02/12 01:57:15;;;;;;;1.50;0.90;;;22.00;53.00;;;;;;6172341;23;20383;-82
2022/02/12 02:03:03;;;;;;;1.20;0.90;;;22.00;53.00;;;;;;6202821;23;20342;-82
2022/02/12 02:05:29;;;;;;;1.03;0.70;;;22.00;53.00;;;;;;6200549;23;20426;-82
2022/02/12 02:08:09;;;;;;;1.30;1.10;;;21.90;53.10;;;;;;6204530;23;20378;-83
2022/02/12 02:10:43;;;;;;;1.13;0.93;;;22.00;53.10;;;;;;6209446;23;20347;-82
2022/02/12 02:13:25;;;;;;;1.13;1.03;;;22.00;53.10;;;;;;6207255;23;20389;-82
2022/02/12 02:15:51;;;;;;;1.87;0.90;;;22.00;53.10;;;;;;6209403;23;20374;-82
2022/02/12 02:18:18;;;;;;;1.10;0.80;;;22.00;53.10;;;;;;6205708;23;20387;-83
2022/02/12 02:20:45;;;;;;;1.73;1.13;;;22.00;53.60;;;;;;6205847;23;20390;-83
2022/02/12 02:23:15;;;;;;;1.60;1.07;;;22.00;53.00;;;;;;6180072;23;20397;-83
2022/02/12 02:25:53;;;;;;;1.37;0.93;;;22.00;53.00;;;;;;6205685;23;20426;-83
2022/02/12 02:28:22;;;;;;;1.30;0.97;;;22.00;53.00;;;;;;6203825;23;20387;-82
2022/02/12 02:30:53;;;;;;;2.00;1.07;;;22.00;52.90;;;;;;6205699;23;20447;-82
2022/02/12 02:33:19;;;;;;;0.90;0.70;;;22.00;52.90;;;;;;6202802;23;20418;-82
2022/02/12 02:35:54;;;;;;;0.90;0.60;;;22.00;52.90;;;;;;6203391;23;20383;-82
2022/02/12 02:38:24;;;;;;;2.40;1.10;;;22.00;52.90;;;;;;6201880;23;20395;-82
2022/02/12 02:40:53;;;;;;;1.30;0.90;;;22.00;52.90;;;;;;6201966;23;20796;-82
2022/02/12 02:43:22;;;;;;;1.80;1.00;;;22.10;53.00;;;;;;6203041;23;20383;-82
2022/02/12 02:45:49;;;;;;;0.87;0.67;;;22.00;52.90;;;;;;6201759;23;20460;-82
2022/02/12 02:48:23;;;;;;;1.50;1.00;;;22.10;53.00;;;;;;6203303;23;20375;-82
2022/02/12 02:56:18;;;;;;;1.20;0.93;;;22.00;52.90;;;;;;6204049;23;20432;-82
2022/02/12 02:58:47;;;;;;;1.30;0.97;;;22.00;52.90;;;;;;6202335;23;20379;-82
2022/02/12 03:01:27;;;;;;;1.40;0.80;;;22.00;52.90;;;;;;6202068;23;20433;-82
2022/02/12 03:03:54;;;;;;;1.80;0.90;;;22.00;52.90;;;;;;6204781;23;20701;-82
2022/02/12 03:06:26;;;;;;;1.57;0.87;;;22.00;52.90;;;;;;6201408;23;20761;-82
2022/02/12 03:09:02;;;;;;;1.50;0.93;;;22.00;52.90;;;;;;6204256;23;20375;-83
2022/02/12 03:11:52;;;;;;;1.00;0.80;;;22.00;52.90;;;;;;6205004;23;20367;-83
2022/02/12 03:14:23;;;;;;;1.20;0.90;;;22.00;52.90;;;;;;6229976;23;20393;-82
2022/02/12 03:16:55;;;;;;;1.53;0.80;;;22.00;52.90;;;;;;6204796;23;20821;-82
2022/02/12 03:19:27;;;;;;;1.20;1.00;;;22.00;52.90;;;;;;6205626;23;20382;-82
2022/02/12 03:21:53;;;;;;;1.37;0.93;;;22.00;52.90;;;;;;6205688;23;20442;-82
2022/02/12 03:24:28;;;;;;;1.63;1.03;;;22.00;52.90;;;;;;6204920;23;20755;-82
2022/02/12 03:27:07;;;;;;;1.10;0.90;;;22.00;52.90;;;;;;6204936;23;20366;-83
2022/02/12 03:29:39;;;;;;;1.20;0.90;;;22.00;52.90;;;;;;6204764;23;20378;-83
2022/02/12 03:32:09;;;;;;;1.70;1.13;;;22.00;52.80;;;;;;6207189;23;20443;-82
2022/02/12 03:34:40;;;;;;;1.30;1.00;;;22.00;52.90;;;;;;6204468;23;20406;-82
2022/02/12 03:37:06;;;;;;;1.60;1.00;;;21.90;52.70;;;;;;6202877;23;20394;-82
2022/02/12 03:39:34;;;;;;;1.87;1.10;;;21.90;52.70;;;;;;6204358;23;20391;-81
2022/02/12 03:42:07;;;;;;;1.10;0.80;;;21.90;52.70;;;;;;6202681;23;20451;-82
2022/02/12 03:44:34;;;;;;;1.00;0.90;;;21.90;52.70;;;;;;6199445;23;20477;-82
2022/02/12 03:47:09;;;;;;;1.50;1.00;;;21.90;52.70;;;;;;6201242;23;20371;-82
2022/02/12 03:49:35;;;;;;;1.50;1.10;;;21.90;52.70;;;;;;6199360;23;20406;-82
2022/02/12 03:52:01;;;;;;;1.47;0.93;;;21.90;52.70;;;;;;6200255;23;20380;-82
2022/02/12 03:54:31;;;;;;;1.33;0.90;;;21.90;52.80;;;;;;6198445;23;20380;-82
2022/02/12 03:57:02;;;;;;;1.67;0.80;;;21.90;52.70;;;;;;6200792;23;20433;-82
2022/02/12 03:59:31;;;;;;;1.07;0.83;;;21.90;52.80;;;;;;6200098;23;20464;-82
2022/02/12 04:01:58;;;;;;;1.30;0.83;;;21.90;52.80;;;;;;6200854;23;20380;-82
2022/02/12 04:04:35;;;;;;;;;;;;;;;;;;;;;
2022/02/12 04:07:01;;;;;;;1.40;1.03;;;21.90;52.80;;;;;;6203500;23;20358;-82
2022/02/12 04:16:47;;;;;;;1.20;0.90;;;21.80;52.80;;;;;;6202150;23;20343;-82
2022/02/12 04:19:22;;;;;;;1.13;0.87;;;21.80;52.80;;;;;;6202851;23;20359;-82
2022/02/12 04:21:49;;;;;;;0.97;0.77;;;21.80;52.90;;;;;;6202121;23;20374;-82
2022/02/12 04:24:20;;;;;;;1.10;0.83;;;21.80;52.80;;;;;;6202632;23;20415;-82
2022/02/12 04:26:51;;;;;;;1.23;0.90;;;21.80;52.90;;;;;;6202138;23;20363;-82
2022/02/12 04:29:24;;;;;;;1.20;0.90;;;21.80;52.90;;;;;;6200801;23;20367;-82
2022/02/12 04:31:50;;;;;;;1.50;0.90;;;21.80;52.80;;;;;;6202179;23;20438;-82
2022/02/12 04:34:16;;;;;;;1.33;1.00;;;21.80;52.80;;;;;;6200634;23;20861;-82
2022/02/12 04:36:43;;;;;;;1.10;0.80;;;21.80;52.80;;;;;;6201881;23;20391;-82
2022/02/12 04:39:09;;;;;;;2.07;1.20;;;21.80;52.80;;;;;;6201472;23;20410;-82
2022/02/12 04:41:35;;;;;;;1.20;0.80;;;21.80;52.80;;;;;;6201138;23;20390;-82
2022/02/12 04:44:05;;;;;;;1.37;1.10;;;21.80;52.80;;;;;;6203044;23;20477;-82
2022/02/12 04:46:38;;;;;;;1.30;0.83;;;21.80;52.80;;;;;;6206912;23;20402;-82
2022/02/12 04:49:05;;;;;;;1.13;0.90;;;21.80;52.80;;;;;;6209378;23;20794;-82
2022/02/12 04:51:36;;;;;;;1.40;1.00;;;21.80;52.80;;;;;;6206097;23;20379;-82
2022/02/12 04:54:03;;;;;;;1.13;0.90;;;21.80;52.80;;;;;;6205379;23;20371;-82
2022/02/12 04:56:35;;;;;;;1.67;1.20;;;21.80;52.80;;;;;;6205620;23;20387;-82
2022/02/12 04:59:08;;;;;;;0.93;0.73;;;21.80;52.80;;;;;;6181232;23;20386;-82
2022/02/12 05:01:35;;;;;;;1.20;0.90;;;21.80;52.80;;;;;;6206054;23;20379;-82
2022/02/12 05:04:01;;;;;;;1.70;0.93;;;21.80;52.80;;;;;;6204640;23;20427;-82
2022/02/12 05:06:33;;;;;;;1.10;0.90;;;21.80;52.80;;;;;;6205102;23;20402;-83
2022/02/12 05:09:02;;;;;;;0.90;0.70;;;21.80;53.30;;;;;;6205453;23;20383;-83
2022/02/12 05:11:28;;;;;;;1.00;0.77;;;21.80;52.80;;;;;;6207002;23;20375;-83
2022/02/12 05:14:00;;;;;;;1.10;0.80;;;21.80;52.80;;;;;;6204598;23;20444;-82
2022/02/12 05:16:28;;;;;;;1.10;0.80;;;21.80;52.80;;;;;;6205201;23;20372;-82
2022/02/12 05:18:54;;;;;;;1.10;0.80;;;21.80;52.80;;;;;;6205485;23;21047;-82
2022/02/12 05:21:21;;;;;;;2.30;1.10;;;21.80;52.80;;;;;;6205320;23;20383;-82
2022/02/12 05:23:48;;;;;;;1.27;0.80;;;21.80;52.80;;;;;;6204029;23;20403;-82
2022/02/12 05:26:15;;;;;;;1.30;1.00;;;21.80;52.80;;;;;;6202872;23;20390;-84
2022/02/12 05:28:42;;;;;;;1.20;0.80;;;21.80;52.80;;;;;;6199108;23;20694;-83
2022/02/12 05:31:08;;;;;;;1.30;1.10;;;21.80;52.80;;;;;;6200543;23;20379;-83
2022/02/12 05:33:39;;;;;;;1.40;0.83;;;21.80;52.80;;;;;;6201544;23;20383;-83
2022/02/12 05:36:09;;;;;;;1.00;0.73;;;21.70;52.70;;;;;;6206334;23;20367;-82
2022/02/12 05:38:57;;;;;;;1.33;1.10;;;21.70;52.70;;;;;;6204219;23;20426;-82
2022/02/12 05:41:23;;;;;;;1.00;0.77;;;21.70;52.70;;;;;;6204475;23;20390;-82
2022/02/12 05:43:51;;;;;;;1.40;1.20;;;21.70;52.80;;;;;;6180164;23;20414;-81
2022/02/12 05:46:22;;;;;;;1.10;0.90;;;21.70;52.70;;;;;;6200439;23;20375;-82
2022/02/12 05:48:48;;;;;;;1.70;0.90;;;21.80;52.90;;;;;;6201063;23;20367;-82
2022/02/12 05:51:20;;;;;;;3.20;0.80;;;21.70;52.70;;;;;;6205024;23;20387;-82
2022/02/12 05:53:46;;;;;;;1.10;0.70;;;21.70;52.80;;;;;;6204273;23;20390;-84
2022/02/12 05:56:13;;;;;;;1.20;0.80;;;21.70;52.70;;;;;;6197998;23;20923;-84
2022/02/12 05:58:39;;;;;;;1.00;0.70;;;21.70;52.70;;;;;;6200804;23;20403;-81
2022/02/12 06:01:05;;;;;;;1.13;0.97;;;21.80;52.80;;;;;;6202479;23;20417;-82
2022/02/12 06:03:31;;;;;;;1.77;0.97;;;21.70;52.70;;;;;;6201703;23;20379;-82
2022/02/12 06:06:00;;;;;;;1.00;0.70;;;21.80;52.80;;;;;;6203214;23;20422;-81
2022/02/12 06:08:33;;;;;;;1.30;0.80;;;21.80;52.80;;;;;;6201913;23;20375;-81
2022/02/12 06:11:01;;;;;;;1.00;0.73;;;21.80;52.80;;;;;;6179154;23;20371;-81
2022/02/12 06:13:29;;;;;;;1.10;0.77;;;21.80;52.80;;;;;;6203916;23;20364;-81
2022/02/12 06:15:56;;;;;;;1.30;0.87;;;21.80;52.80;;;;;;6201193;23;20387;-81
2022/02/12 06:18:25;;;;;;;1.20;1.00;;;21.80;52.80;;;;;;6205619;23;20387;-81
2022/02/12 06:20:52;;;;;;;1.10;0.70;;;21.80;52.80;;;;;;6205707;23;20703;-81
2022/02/12 06:23:21;;;;;;;1.17;0.80;;;21.80;52.80;;;;;;6201733;23;20391;-81
2022/02/12 06:25:57;;;;;;;0.80;0.60;;;21.80;52.80;;;;;;6202901;23;20453;-82
2022/02/12 06:28:31;;;;;;;1.87;0.90;;;21.80;52.80;;;;;;6202694;23;20454;-81
2022/02/12 06:30:58;;;;;;;0.90;0.60;;;21.80;52.80;;;;;;6202197;23;20378;-81
2022/02/12 06:33:25;;;;;;;1.50;1.00;;;21.80;52.80;;;;;;6203781;23;20706;-81
2022/02/12 06:35:51;;;;;;;1.13;0.80;;;21.80;52.80;;;;;;6202132;23;20465;-82
2022/02/12 06:38:18;;;;;;;1.20;0.90;;;21.80;52.80;;;;;;6202013;23;20438;-82
2022/02/12 06:40:45;;;;;;;1.10;0.80;;;21.80;52.80;;;;;;6202694;23;20394;-82
2022/02/12 06:43:11;;;;;;;0.90;0.70;;;21.80;52.80;;;;;;6205068;23;20388;-82
2022/02/12 06:45:39;;;;;;;1.07;0.70;;;21.80;52.80;;;;;;6202614;23;20423;-82
2022/02/12 06:48:06;;;;;;;1.73;0.90;;;21.80;52.80;;;;;;6202003;23;20375;-82
2022/02/12 06:50:36;;;;;;;1.10;0.70;;;21.80;52.80;;;;;;6203538;23;20383;-82
2022/02/12 06:53:10;;;;;;;0.90;0.60;;;21.80;52.80;;;;;;6202367;23;20446;-81
2022/02/12 06:55:36;;;;;;;0.90;0.70;;;21.80;52.80;;;;;;6201381;23;20405;-81
2022/02/12 06:58:02;;;;;;;1.30;0.83;;;21.80;52.80;;;;;;6176377;23;20394;-81
2022/02/12 07:00:40;;;;;;;0.80;0.70;;;21.80;52.80;;;;;;6201329;23;20390;-82
2022/02/12 07:03:33;;;;;;;1.00;0.70;;;21.90;52.80;;;;;;6201009;23;20447;-84
2022/02/12 07:05:59;;;;;;;0.90;0.73;;;21.80;52.80;;;;;;6197819;23;20423;-82
2022/02/12 07:08:25;;;;;;;1.00;0.80;;;21.80;52.80;;;;;;6199921;23;20386;-83
2022/02/12 07:10:57;;;;;;;1.20;0.80;;;21.80;52.80;;;;;;6199736;23;20457;-83
2022/02/12 07:13:38;;;;;;;1.13;0.80;;;21.90;52.80;;;;;;6200398;23;20405;-82
2022/02/12 07:16:06;;;;;;;1.00;0.80;;;21.80;52.80;;;;;;6200737;23;20394;-82
2022/02/12 07:18:33;;;;;;;1.73;0.80;;;21.90;52.80;;;;;;6201418;23;20387;-82
2022/02/12 07:21:02;;;;;;;1.00;0.80;;;21.90;52.80;;;;;;6200359;23;20391;-81
2022/02/12 07:23:31;;;;;;;1.00;0.73;;;21.90;52.80;;;;;;6200760;23;20379;-81
2022/02/12 07:25:59;;;;;;;0.90;0.70;;;21.90;52.80;;;;;;6200076;23;20490;-81
2022/02/12 07:28:29;;;;;;;0.93;0.70;;;21.90;52.80;;;;;;6201750;23;20378;-81
2022/02/12 07:30:55;;;;;;;1.10;0.80;;;21.90;52.80;;;;;;6202741;23;20362;-82
2022/02/12 07:33:24;;;;;;;0.93;0.70;;;21.90;52.80;;;;;;6200441;23;20387;-82
2022/02/12 07:35:56;;;;;;;1.10;0.87;;;21.90;52.80;;;;;;6199293;23;20379;-81
2022/02/12 07:38:36;;;;;;;1.00;0.70;;;21.90;52.80;;;;;;6199397;23;20395;-81
2022/02/12 07:41:09;;;;;;;1.00;0.70;;;21.90;52.80;;;;;;6199780;23;20371;-82
2022/02/12 07:43:35;;;;;;;1.03;0.80;;;21.90;52.80;;;;;;6198002;23;20394;-82
2022/02/12 07:46:09;;;;;;;1.00;0.63;;;21.90;52.80;;;;;;6201192;23;20473;-82
2022/02/12 07:48:35;;;;;;;0.90;0.70;;;21.90;52.80;;;;;;6205399;23;20363;-82
2022/02/12 07:51:04;;;;;;;1.33;0.80;;;21.90;52.70;;;;;;6203980;23;20399;-82
2022/02/12 07:56:44;;;;;;;1.10;0.83;;;21.90;52.80;;;;;;6204834;23;20367;-82
2022/02/12 07:59:33;;;;;;;0.80;0.60;;;21.90;52.80;;;;;;6179097;23;20450;-81
2022/02/12 08:02:00;;;;;;;1.23;0.70;;;21.90;53.30;;;;;;6200255;23;20378;-82
2022/02/12 08:04:28;;;;;;;1.10;0.70;;;21.90;52.80;;;;;;6200852;23;20505;-82
2022/02/12 08:09:39;;;;;;;1.10;0.80;;;21.90;52.80;;;;;;6201102;23;20367;-81
2022/02/12 08:12:18;;;;;;;1.00;0.70;;;21.90;52.80;;;;;;6200064;23;20375;-82
2022/02/12 08:14:52;;;;;;;1.00;0.70;;;21.90;52.80;;;;;;6201193;23;20371;-81
2022/02/12 08:17:20;;;;;;;1.00;0.70;;;21.90;52.80;;;;;;6199340;23;20398;-81
2022/02/12 08:19:50;;;;;;;1.13;0.90;;;21.90;52.80;;;;;;6199271;23;20856;-81
2022/02/12 08:22:23;;;;;;;1.13;0.80;;;21.90;52.80;;;;;;6203785;23;20363;-82
2022/02/12 08:31:25;;;;;;;0.90;0.70;;;21.90;52.80;;;;;;6112305;23;20372;-81
2022/02/12 08:33:52;;;;;;;1.07;0.80;;;21.90;52.80;;;;;;6088544;23;20405;-82
2022/02/12 08:36:24;;;;;;;1.00;0.70;;;21.90;52.80;;;;;;6089538;23;20378;-81
2022/02/12 08:38:53;;;;;;;1.20;0.80;;;21.90;53.40;;;;;;6089035;23;20398;-82
2022/02/12 08:41:20;;;;;;;1.00;0.80;;;21.90;52.80;;;;;;6088120;23;20381;-82
2022/02/12 08:43:46;;;;;;;1.20;0.80;;;21.90;52.80;;;;;;6088722;23;20378;-82
2022/02/12 08:46:18;;;;;;;0.97;0.70;;;21.90;52.80;;;;;;6090773;23;20382;-82
2022/02/12 08:48:47;;;;;;;1.07;0.80;;;21.90;52.80;;;;;;6115029;23;20393;-82
2022/02/12 08:51:14;;;;;;;0.90;0.60;;;21.90;52.70;;;;;;6112365;23;20895;-82
2022/02/12 08:53:45;;;;;;;1.33;0.93;;;21.90;52.70;;;;;;6111645;23;20392;-82
2022/02/12 09:02:30;;;;;;;1.10;0.80;;;22.00;52.80;;;;;;6202821;23;20386;-81
2022/02/12 09:04:59;;;;;;;1.20;0.80;;;22.00;52.80;;;;;;6200957;23;20454;-82
2022/02/12 09:07:27;;;;;;;0.83;0.70;;;21.90;52.70;;;;;;6200946;23;20409;-83
2022/02/12 09:10:01;;;;;;;0.80;0.60;;;21.90;52.70;;;;;;6203415;23;20379;-83
2022/02/12 09:12:31;;;;;;;1.27;0.80;;;22.00;52.80;;;;;;6224808;23;20382;-84
2022/02/12 09:15:05;;;;;;;1.13;0.90;;;22.00;52.90;;;;;;6176166;23;20383;-84
2022/02/12 09:17:40;;;;;;;1.17;0.90;;;22.00;52.80;;;;;;6202540;23;20875;-83
2022/02/12 09:20:10;;;;;;;1.37;0.70;;;22.00;52.80;;;;;;6207434;23;20434;-83
2022/02/12 09:22:41;;;;;;;0.93;0.60;;;22.00;52.80;;;;;;6207207;23;20379;-83
2022/02/12 09:25:49;;;;;;;1.17;0.77;;;22.00;52.70;;;;;;6206937;23;20430;-82
2022/02/12 09:28:21;;;;;;;0.83;0.70;;;22.00;52.70;;;;;;6175570;23;20387;-83
2022/02/12 09:31:01;;;;;;;0.87;0.70;;;22.00;52.70;;;;;;6180328;23;20387;-83
2022/02/12 09:33:33;;;;;;;1.10;0.70;;;22.00;52.70;;;;;;6205555;23;20427;-83
2022/02/12 09:36:01;;;;;;;1.00;0.60;;;22.00;52.70;;;;;;6203757;23;20387;-83
2022/02/12 09:38:33;;;;;;;0.80;0.60;;;22.00;52.70;;;;;;6200490;23;20407;-82
2022/02/12 09:41:07;;;;;;;0.90;0.60;;;22.00;52.70;;;;;;6201119;23;20383;-83
2022/02/12 09:43:40;;;;;;;1.10;0.67;;;22.00;52.70;;;;;;6202367;23;20354;-82
2022/02/12 09:46:45;;;;;;;1.00;0.70;;;22.00;52.70;;;;;;6203638;23;20417;-84
2022/02/12 09:49:29;;;;;;;0.90;0.70;;;22.00;52.70;;;;;;6202388;23;20371;-82
2022/02/12 09:52:04;;;;;;;0.90;0.60;;;22.00;52.70;;;;;;6177063;23;20709;-82
2022/02/12 09:54:41;;;;;;;1.23;0.73;;;22.00;52.70;;;;;;6201399;23;20387;-81
2022/02/12 09:57:11;;;;;;;1.10;0.73;;;22.00;52.70;;;;;;6203383;23;20355;-81
2022/02/12 09:59:56;;;;;;;;;;;;;;;;;;;;;
2022/02/12 10:05:54;;;;;;;1.10;1.00;;;22.00;52.70;;;;;;6091242;23;20875;-82
2022/02/12 10:08:31;;;;;;;0.80;0.60;;;22.00;52.80;;;;;;6112648;23;20389;-81
2022/02/12 10:11:00;;;;;;;0.90;0.60;;;22.00;52.80;;;;;;6091222;23;20389;-82
2022/02/12 10:13:52;;;;;;;1.00;0.60;;;22.00;52.80;;;;;;6092294;23;20386;-82
2022/02/12 10:19:54;;;;;;;0.80;0.60;;;22.00;52.80;;;;;;6115704;23;20406;-82
2022/02/12 10:22:26;;;;;;;0.90;0.70;;;22.00;52.80;;;;;;6099432;23;20381;-82
2022/02/12 10:25:09;;;;;;;0.83;0.60;;;22.00;52.80;;;;;;6091521;23;20421;-82
2022/02/12 10:27:51;;;;;;;0.97;0.70;;;22.00;52.80;;;;;;6091085;23;20370;-82
2022/02/12 10:30:38;;;;;;;0.90;0.63;;;22.00;52.70;;;;;;6086896;23;20475;-82
2022/02/12 10:33:11;;;;;;;0.90;0.70;;;22.00;52.70;;;;;;6087173;23;20814;-82
2022/02/12 10:35:40;;;;;;;0.80;0.70;;;22.00;52.70;;;;;;6087599;23;20903;-83
2022/02/12 10:38:12;;;;;;;1.27;0.83;;;22.00;52.80;;;;;;6099207;23;20405;-82
2022/02/12 10:40:41;;;;;;;1.00;0.63;;;22.00;52.70;;;;;;6118146;23;20729;-82
2022/02/12 10:43:27;;;;;;;0.90;0.70;;;22.00;52.70;;;;;;6145905;23;20416;-82
2022/02/12 10:45:52;;;;;;;1.00;0.80;;;22.00;52.70;;;;;;6120468;23;20501;-83
2022/02/12 10:48:21;;;;;;;1.00;0.80;;;22.10;52.70;;;;;;6120766;23;20380;-83
2022/02/12 10:54:11;;;;;;;1.00;0.70;;;22.10;52.70;;;;;;6143850;23;20469;-83
2022/02/12 10:56:53;;;;;;;1.03;0.70;;;22.10;52.70;;;;;;6142682;23;20793;-83
2022/02/12 10:59:21;;;;;;;0.90;0.60;;;22.10;52.80;;;;;;6140599;23;20371;-83
2022/02/12 11:01:53;;;;;;;0.90;0.70;;;22.10;52.70;;;;;;6141544;23;20363;-83
2022/02/12 11:04:20;;;;;;;0.90;0.60;;;22.10;52.70;;;;;;6116161;23;20428;-82
2022/02/12 11:06:47;;;;;;;0.93;0.70;;;22.10;52.70;;;;;;6116104;23;20380;-83
2022/02/12 11:09:16;;;;;;;0.80;0.60;;;22.10;52.70;;;;;;6140159;23;20480;-83
2022/02/12 11:11:46;;;;;;;0.90;0.80;;;22.10;52.70;;;;;;6116519;23;20471;-82
2022/02/12 11:18:19;;;;;;;0.80;0.60;;;22.10;52.70;;;;;;6125664;23;20380;-83
2022/02/12 11:21:07;;;;;;;0.90;0.70;;;22.10;52.70;;;;;;6119556;23;20462;-83
2022/02/12 11:23:36;;;;;;;1.00;0.67;;;22.00;53.20;;;;;;6143256;23;20365;-83
2022/02/12 11:26:02;;;;;;;0.93;0.80;;;22.00;52.70;;;;;;6117238;23;20420;-83
2022/02/12 11:28:41;;;;;;;1.07;0.77;;;22.00;52.70;;;;;;6120168;23;20399;-82
2022/02/12 11:31:18;;;;;;;1.00;0.80;;;22.10;52.80;;;;;;6117510;23;20153;-83
2022/02/12 11:34:43;;;;;;;0.97;0.70;;;22.10;52.80;;;;;;6116367;23;20395;-83
2022/02/12 11:43:54;;;;;;;1.03;0.90;;;22.00;52.70;;;;;;6112057;23;20361;-83
2022/02/12 11:46:59;;;;;;;3.37;0.90;;;22.00;52.80;;;;;;6111013;23;20389;-83
2022/02/12 11:49:39;;;;;;;1.20;0.77;;;22.00;52.80;;;;;;6086272;23;20388;-82
2022/02/12 11:55:38;;;;;;;1.10;0.80;;;22.00;52.70;;;;;;6052308;23;20412;-83
2022/02/12 12:01:51;;;;;;;1.17;0.73;;;22.00;52.70;;;;;;6044980;23;20424;-83
2022/02/12 12:04:48;;;;;;;1.03;0.80;;;22.00;52.70;;;;;;6021681;23;20453;-82
2022/02/12 12:07:14;;;;;;;0.90;0.80;;;22.00;52.80;;;;;;5973319;24;20580;-82
2022/02/12 12:10:34;;;;;;;1.00;0.70;;;22.00;52.70;;;;;;5973751;24;20422;-83
2022/02/12 12:19:52;;;;;;;0.90;0.63;;;22.10;52.80;;;;;;6010797;23;20870;-82
2022/02/12 12:22:22;;;;;;;1.07;0.80;;;22.10;52.80;;;;;;6031619;23;20384;-83
2022/02/12 12:25:00;;;;;;;0.80;0.60;;;22.00;52.70;;;;;;6030735;23;20447;-82
2022/02/12 12:27:34;;;;;;;1.00;0.80;;;22.10;52.80;;;;;;6052791;23;20372;-83
2022/02/12 12:33:01;;;;;;;1.17;0.90;;;22.10;52.70;;;;;;6111348;23;20498;-83
2022/02/12 12:35:28;;;;;;;1.40;1.00;;;22.10;52.70;;;;;;6139900;23;20377;-83
2022/02/12 12:37:56;;;;;;;1.10;0.90;;;22.10;53.30;;;;;;6115988;23;20444;-83
2022/02/12 12:40:31;;;;;;;1.30;1.10;;;22.10;52.70;;;;;;6115438;23;20481;-82
2022/02/12 12:43:31;;;;;;;1.90;1.20;;;22.10;52.70;;;;;;6115895;23;20747;-81
2022/02/12 12:46:02;;;;;;;2.23;1.70;;;22.10;52.70;;;;;;6086002;23;20497;-81
2022/02/12 12:48:56;;;;;;;1.63;1.30;;;22.10;52.70;;;;;;6086432;23;20378;-84
2022/02/12 12:51:26;;;;;;;1.33;1.00;;;22.10;52.70;;;;;;6067660;23;20378;-83
2022/02/12 13:00:45;;;;;;;1.87;1.10;;;22.10;52.70;;;;;;6084781;23;20691;-83
2022/02/12 13:03:33;;;;;;;1.20;0.83;;;22.00;52.60;;;;;;6086863;23;20466;-83
2022/02/12 13:06:08;;;;;;;1.40;1.00;;;22.00;52.60;;;;;;6059279;23;20843;-82
2022/02/12 13:08:36;;;;;;;1.10;0.77;;;22.00;52.60;;;;;;6084432;23;20382;-83
2022/02/12 13:18:38;;;;;;;1.20;0.73;;;22.10;52.70;;;;;;6027865;23;20759;-83
2022/02/12 13:21:33;;;;;;;1.10;0.70;;;22.00;52.60;;;;;;6026748;23;20811;-84
2022/02/12 13:24:15;;;;;;;1.00;0.73;;;22.00;52.60;;;;;;5998729;23;20389;-84
2022/02/12 13:27:17;;;;;;;0.90;0.70;;;22.00;52.60;;;;;;5985054;23;20516;-84
2022/02/12 13:30:18;;;;;;;1.53;0.70;;;22.00;52.60;;;;;;6049584;23;20411;-84
2022/02/12 13:32:54;;;;;;;1.07;0.90;;;22.00;52.60;;;;;;6057027;23;20432;-84
2022/02/12 13:35:37;;;;;;;1.10;0.80;;;22.00;52.60;;;;;;6057881;23;20402;-83
2022/02/12 13:38:25;;;;;;;;;;;;;;;;;;;;;
2022/02/12 13:41:20;;;;;;;1.40;1.10;;;22.00;52.60;;;;;;6038842;23;20392;-84
2022/02/12 13:51:35;;;;;;;0.90;0.80;;;22.00;52.60;;;;;;6055376;23;20894;-85
2022/02/12 14:05:05;;;;;;;;;;;;;;;;;;;;;
2022/02/12 14:07:58;;;;;;;1.00;0.77;;;22.00;52.70;;;;;;5944532;24;20498;-85
2022/02/12 14:10:36;;;;;;;0.90;0.70;;;22.00;52.70;;;;;;5966598;24;20393;-84
2022/02/12 14:13:06;;;;;;;0.87;0.70;;;22.00;52.70;;;;;;5964691;24;20375;-84
2022/02/12 14:16:10;;;;;;;2.17;0.77;;;22.00;52.70;;;;;;5969254;24;20390;-84
2022/02/12 14:18:44;;;;;;;0.97;0.73;;;22.00;52.70;;;;;;5954165;24;20394;-84
2022/02/12 14:21:14;;;;;;;0.93;0.77;;;22.00;52.60;;;;;;5947954;24;20501;-84
2022/02/12 14:23:56;;;;;;;1.50;0.80;;;22.00;52.60;;;;;;5968565;24;20386;-84
2022/02/12 14:26:26;;;;;;;1.10;0.80;;;22.00;52.70;;;;;;5947242;24;20500;-84
2022/02/12 14:29:13;;;;;;;;;;;;;;;;;;;;;
2022/02/12 14:31:53;;;;;;;1.10;1.00;;;22.00;52.60;;;;;;6160048;23;20371;-83
2022/02/12 14:34:59;;;;;;;;;;;;;;;;;;;;;
2022/02/12 14:37:49;;;;;;;1.00;0.63;;;22.00;52.70;;;;;;6191278;23;20382;-83
2022/02/12 14:40:21;;;;;;;1.07;0.70;;;22.00;52.60;;;;;;6201451;23;20378;-83
2022/02/12 14:42:53;;;;;;;1.10;0.90;;;22.00;52.60;;;;;;6200842;23;20394;-83
2022/02/12 14:48:22;;;;;;;0.90;0.67;;;22.00;52.60;;;;;;6206269;23;20414;-83
2022/02/12 14:50:54;;;;;;;0.90;0.73;;;22.00;52.60;;;;;;6204581;23;20410;-84
2022/02/12 14:53:38;;;;;;;1.20;0.80;;;22.00;52.70;;;;;;6197071;23;20390;-84
2022/02/12 15:00:10;;;;;;;1.00;0.70;;;22.00;52.60;;;;;;6200643;23;20719;-84
2022/02/12 15:05:40;;;;;;;0.80;0.60;;;22.00;52.70;;;;;;6205546;23;20411;-84
2022/02/12 15:08:36;;;;;;;1.20;1.00;;;22.00;52.70;;;;;;6206238;23;20356;-84
2022/02/12 15:17:20;;;;;;;0.90;0.70;;;22.00;52.60;;;;;;6174271;23;20356;-84
2022/02/12 15:20:08;;;;;;;1.00;0.77;;;22.00;52.60;;;;;;6149050;23;20874;-84
2022/02/12 15:22:57;;;;;;;0.90;0.67;;;22.00;52.70;;;;;;6149468;23;20403;-84
2022/02/12 15:25:36;;;;;;;1.30;0.80;;;22.00;52.60;;;;;;6148220;23;20430;-84
2022/02/12 15:28:40;;;;;;;1.57;0.70;;;21.90;52.60;;;;;;6170166;23;20399;-84
2022/02/12 15:31:24;;;;;;;1.23;0.70;;;22.00;52.60;;;;;;6145755;23;20376;-84
2022/02/12 15:34:47;;;;;;;1.10;0.70;;;22.00;52.70;;;;;;6123371;23;20466;-84
2022/02/12 15:38:08;;;;;;;1.27;0.90;;;22.00;52.60;;;;;;6141912;23;20372;-84